createdAt,value
2016-08-25T00:00:19.954Z,16.68
2016-08-25T00:01:19.956Z,16.68
2016-08-25T00:02:21.372Z,16.64
2016-08-25T00:03:21.467Z,16.67
2016-08-25T00:04:22.166Z,16.64
2016-08-25T00:05:20.831Z,16.66
2016-08-25T00:06:21.304Z,16.5
2016-08-25T00:07:19.937Z,16.61
2016-08-25T00:08:19.930Z,16.53
2016-08-25T00:09:19.929Z,16.57
2016-08-25T00:10:19.930Z,16.57
2016-08-25T00:11:20.626Z,16.5
2016-08-25T00:12:19.923Z,16.49
2016-08-25T00:13:19.920Z,16.53
2016-08-25T00:14:19.921Z,16.48
2016-08-25T00:15:19.916Z,16.52
2016-08-25T00:16:19.915Z,16.48
2016-08-25T00:17:19.910Z,16.45
2016-08-25T00:18:19.908Z,16.42
2016-08-25T00:19:19.905Z,16.41
2016-08-25T00:20:19.896Z,16.41
2016-08-25T00:21:19.903Z,16.41
2016-08-25T00:22:19.899Z,16.38
2016-08-25T00:23:19.891Z,16.35
2016-08-25T00:24:19.889Z,16.39
2016-08-25T00:25:19.901Z,16.3
2016-08-25T00:26:19.890Z,16.31
2016-08-25T00:27:19.875Z,16.33
2016-08-25T00:28:19.879Z,16.28
2016-08-25T00:29:19.873Z,16.33
2016-08-25T00:30:35.791Z,16.41
2016-08-25T00:31:20.168Z,16.28
2016-08-25T00:32:35.333Z,16.23
2016-08-25T00:33:19.867Z,16.3
2016-08-25T00:34:19.866Z,16.31
2016-08-25T00:35:20.963Z,16.28
2016-08-25T00:36:19.859Z,16.27
2016-08-25T00:37:19.858Z,16.3
2016-08-25T00:38:19.844Z,16.25
2016-08-25T00:40:20.545Z,16.17
2016-08-25T00:41:19.891Z,16.12
2016-08-25T00:42:20.639Z,16.12
2016-08-25T00:43:34.749Z,16.15
2016-08-25T00:44:20.890Z,16.12
2016-08-25T00:45:19.825Z,16.09
2016-08-25T00:46:19.823Z,16.17
2016-08-25T00:47:19.824Z,16.14
2016-08-25T00:48:19.816Z,16.14
2016-08-25T00:49:19.814Z,16.08
2016-08-25T00:50:19.813Z,16.08
2016-08-25T00:51:19.808Z,16.09
2016-08-25T00:52:19.813Z,16.09
2016-08-25T00:53:19.804Z,16
2016-08-25T00:54:19.805Z,16.07
2016-08-25T00:55:19.801Z,16.04
2016-08-25T00:56:19.803Z,15.97
2016-08-25T00:57:19.797Z,15.97
2016-08-25T00:58:19.788Z,15.94
2016-08-25T00:59:19.789Z,15.97
2016-08-25T01:00:19.792Z,16.05
2016-08-25T01:01:19.785Z,15.97
2016-08-25T01:02:19.776Z,16.02
2016-08-25T01:03:19.777Z,16.02
2016-08-25T01:04:19.769Z,16
2016-08-25T01:05:19.764Z,16.01
2016-08-25T01:06:19.868Z,16.05
2016-08-25T01:07:19.766Z,15.97
2016-08-25T01:08:19.766Z,15.96
2016-08-25T01:09:19.765Z,16
2016-08-25T01:10:19.756Z,15.96
2016-08-25T01:11:20.569Z,15.92
2016-08-25T01:12:21.270Z,15.93
2016-08-25T01:13:22.058Z,15.89
2016-08-25T01:14:20.918Z,15.87
2016-08-25T01:15:19.747Z,15.84
2016-08-25T01:16:19.733Z,15.83
2016-08-25T01:17:19.738Z,15.86
2016-08-25T01:18:19.725Z,15.78
2016-08-25T01:19:19.728Z,15.78
2016-08-25T01:21:22.717Z,15.72
2016-08-25T01:22:20.050Z,15.83
2016-08-25T01:23:19.717Z,15.8
2016-08-25T01:24:20.302Z,15.84
2016-08-25T01:25:20.196Z,15.78
2016-08-25T01:26:19.805Z,15.8
2016-08-25T01:27:19.711Z,15.75
2016-08-25T01:28:19.703Z,15.75
2016-08-25T01:29:19.699Z,15.76
2016-08-25T01:30:19.694Z,15.76
2016-08-25T01:31:19.696Z,15.83
2016-08-25T01:32:19.688Z,15.82
2016-08-25T01:33:19.682Z,15.8
2016-08-25T01:34:19.678Z,15.78
2016-08-25T01:35:19.674Z,15.84
2016-08-25T01:36:19.674Z,15.76
2016-08-25T01:37:19.676Z,15.76
2016-08-25T01:38:19.671Z,15.75
2016-08-25T01:39:19.668Z,15.78
2016-08-25T01:40:19.663Z,15.82
2016-08-25T01:41:19.661Z,15.75
2016-08-25T01:42:19.654Z,15.75
2016-08-25T01:43:19.650Z,15.76
2016-08-25T01:44:20.351Z,15.67
2016-08-25T01:45:19.641Z,15.67
2016-08-25T01:46:19.640Z,15.68
2016-08-25T01:47:19.648Z,15.67
2016-08-25T01:48:19.643Z,15.78
2016-08-25T01:49:20.089Z,15.76
2016-08-25T01:50:19.634Z,15.68
2016-08-25T01:51:20.078Z,15.67
2016-08-25T01:52:20.221Z,15.67
2016-08-25T01:53:19.620Z,15.64
2016-08-25T01:54:19.619Z,15.57
2016-08-25T01:55:19.616Z,15.65
2016-08-25T01:56:19.611Z,15.65
2016-08-25T01:57:19.608Z,15.6
2016-08-25T01:58:20.455Z,15.6
2016-08-25T01:59:20.104Z,15.51
2016-08-25T02:00:19.998Z,15.56
2016-08-25T02:01:20.048Z,15.64
2016-08-25T02:02:19.738Z,15.44
2016-08-25T02:03:19.592Z,15.54
2016-08-25T02:04:19.582Z,15.56
2016-08-25T02:05:19.584Z,15.54
2016-08-25T02:06:19.576Z,15.53
2016-08-25T02:07:19.575Z,15.51
2016-08-25T02:08:19.569Z,15.51
2016-08-25T02:09:19.569Z,15.43
2016-08-25T02:10:19.566Z,15.39
2016-08-25T02:11:19.556Z,15.39
2016-08-25T02:12:19.556Z,15.36
2016-08-25T02:13:19.557Z,15.44
2016-08-25T02:14:19.587Z,15.39
2016-08-25T02:15:19.541Z,15.38
2016-08-25T02:16:19.551Z,15.34
2016-08-25T02:17:19.541Z,15.36
2016-08-25T02:18:19.534Z,15.32
2016-08-25T02:19:19.534Z,15.36
2016-08-25T02:20:19.529Z,15.31
2016-08-25T02:21:19.526Z,15.34
2016-08-25T02:22:19.521Z,15.34
2016-08-25T02:23:19.525Z,15.36
2016-08-25T02:24:19.521Z,15.31
2016-08-25T02:25:19.519Z,15.34
2016-08-25T02:26:19.513Z,15.27
2016-08-25T02:27:19.504Z,15.23
2016-08-25T02:28:19.499Z,15.21
2016-08-25T02:29:21.021Z,15.25
2016-08-25T02:31:20.072Z,15.2
2016-08-25T02:32:19.563Z,15.25
2016-08-25T02:33:20.827Z,15.25
2016-08-25T02:34:19.481Z,15.25
2016-08-25T02:35:19.492Z,15.19
2016-08-25T02:36:19.476Z,15.21
2016-08-25T02:37:19.470Z,15.23
2016-08-25T02:38:20.263Z,15.23
2016-08-25T02:39:20.041Z,15.25
2016-08-25T02:40:20.108Z,15.19
2016-08-25T02:41:19.980Z,15.16
2016-08-25T02:42:19.454Z,15.17
2016-08-25T02:43:19.918Z,15.23
2016-08-25T02:44:19.935Z,15.17
2016-08-25T02:45:19.443Z,15.21
2016-08-25T02:46:19.440Z,15.17
2016-08-25T02:47:19.436Z,15.23
2016-08-25T02:48:19.429Z,15.1
2016-08-25T02:49:19.427Z,15.09
2016-08-25T02:50:19.424Z,15.13
2016-08-25T02:51:19.422Z,15.09
2016-08-25T02:52:19.414Z,15.06
2016-08-25T02:53:19.411Z,15.09
2016-08-25T02:54:19.409Z,15.06
2016-08-25T02:55:19.411Z,15.03
2016-08-25T02:56:19.406Z,15.07
2016-08-25T02:57:19.400Z,15.02
2016-08-25T02:58:19.399Z,14.95
2016-08-25T02:59:19.392Z,14.91
2016-08-25T03:00:19.389Z,14.98
2016-08-25T03:01:19.390Z,14.96
2016-08-25T03:02:19.387Z,14.94
2016-08-25T03:03:19.389Z,14.98
2016-08-25T03:04:19.379Z,14.96
2016-08-25T03:05:19.371Z,14.83
2016-08-25T03:06:19.419Z,14.83
2016-08-25T03:07:19.968Z,14.89
2016-08-25T03:08:19.656Z,14.83
2016-08-25T03:09:19.913Z,14.88
2016-08-25T03:10:19.366Z,14.84
2016-08-25T03:11:19.346Z,14.88
2016-08-25T03:12:19.343Z,14.86
2016-08-25T03:13:19.347Z,14.84
2016-08-25T03:14:19.341Z,14.83
2016-08-25T03:15:19.335Z,14.8
2016-08-25T03:16:20.090Z,14.84
2016-08-25T03:17:20.077Z,14.86
2016-08-25T03:18:20.177Z,14.88
2016-08-25T03:19:19.334Z,14.83
2016-08-25T03:20:19.313Z,14.8
2016-08-25T03:21:20.165Z,14.81
2016-08-25T03:22:19.304Z,14.84
2016-08-25T03:23:19.303Z,14.8
2016-08-25T03:24:19.301Z,14.78
2016-08-25T03:25:19.298Z,14.8
2016-08-25T03:26:19.295Z,14.78
2016-08-25T03:27:19.284Z,14.7
2016-08-25T03:28:19.281Z,14.73
2016-08-25T03:29:19.288Z,14.73
2016-08-25T03:30:19.275Z,14.77
2016-08-25T03:31:19.273Z,14.77
2016-08-25T03:32:19.268Z,14.7
2016-08-25T03:33:19.267Z,14.7
2016-08-25T03:34:19.260Z,14.73
2016-08-25T03:35:19.264Z,14.64
2016-08-25T03:36:19.247Z,14.64
2016-08-25T03:37:19.247Z,14.69
2016-08-25T03:38:19.252Z,14.68
2016-08-25T03:39:19.242Z,14.62
2016-08-25T03:40:19.242Z,14.6
2016-08-25T03:41:19.230Z,14.62
2016-08-25T03:42:19.234Z,14.6
2016-08-25T03:43:19.232Z,14.6
2016-08-25T03:44:19.221Z,14.58
2016-08-25T03:45:19.216Z,14.62
2016-08-25T03:46:19.215Z,14.52
2016-08-25T03:47:20.729Z,14.52
2016-08-25T03:48:21.422Z,14.65
2016-08-25T03:49:19.610Z,14.51
2016-08-25T03:50:19.741Z,14.6
2016-08-25T03:51:19.465Z,14.54
2016-08-25T03:52:19.191Z,14.5
2016-08-25T03:53:19.192Z,14.62
2016-08-25T03:54:19.187Z,14.58
2016-08-25T03:55:19.175Z,14.54
2016-08-25T03:56:20.130Z,14.51
2016-08-25T03:57:22.362Z,14.55
2016-08-25T03:58:20.704Z,14.54
2016-08-25T03:59:20.880Z,14.54
2016-08-25T04:00:20.053Z,14.57
2016-08-25T04:01:19.155Z,14.52
2016-08-25T04:02:19.515Z,14.51
2016-08-25T04:03:19.360Z,14.61
2016-08-25T04:04:19.142Z,14.52
2016-08-25T04:05:19.144Z,14.62
2016-08-25T04:06:19.286Z,14.64
2016-08-25T04:07:19.133Z,14.54
2016-08-25T04:08:19.129Z,14.51
2016-08-25T04:09:19.123Z,14.62
2016-08-25T04:10:19.126Z,14.62
2016-08-25T04:11:19.119Z,14.52
2016-08-25T04:12:19.808Z,14.6
2016-08-25T04:13:19.107Z,14.54
2016-08-25T04:14:19.105Z,14.61
2016-08-25T04:15:19.098Z,14.61
2016-08-25T04:16:19.098Z,14.52
2016-08-25T04:17:19.097Z,14.6
2016-08-25T04:18:19.092Z,14.6
2016-08-25T04:19:19.083Z,14.55
2016-08-25T04:20:19.082Z,14.62
2016-08-25T04:21:19.077Z,14.62
2016-08-25T04:22:19.070Z,14.7
2016-08-25T04:23:19.069Z,14.69
2016-08-25T04:24:19.065Z,14.81
2016-08-25T04:25:19.306Z,14.84
2016-08-25T04:26:19.256Z,14.94
2016-08-25T04:27:19.049Z,15.09
2016-08-25T04:29:20.042Z,15.36
2016-08-25T04:30:19.140Z,15.35
2016-08-25T04:31:19.036Z,15.59
2016-08-25T04:32:19.034Z,15.62
2016-08-25T04:33:19.035Z,15.82
2016-08-25T04:34:19.625Z,16.02
2016-08-25T04:35:19.242Z,16.14
2016-08-25T04:36:19.671Z,16.28
2016-08-25T04:37:19.672Z,16.49
2016-08-25T04:38:19.868Z,16.73
2016-08-25T04:39:19.113Z,16.86
2016-08-25T04:40:19.007Z,17.07
2016-08-25T04:41:19.003Z,17.31
2016-08-25T04:42:19.695Z,17.51
2016-08-25T04:43:18.993Z,17.77
2016-08-25T04:44:18.995Z,17.9
2016-08-25T04:45:18.997Z,18.17
2016-08-25T04:46:18.992Z,18.33
2016-08-25T04:47:19.691Z,18.55
2016-08-25T04:48:18.997Z,18.78
2016-08-25T04:49:18.988Z,18.87
2016-08-25T04:50:18.993Z,19.14
2016-08-25T04:51:18.988Z,19.47
2016-08-25T04:52:18.988Z,19.73
2016-08-25T04:53:18.986Z,19.91
2016-08-25T04:54:18.984Z,20.14
2016-08-25T04:55:18.982Z,20.43
2016-08-25T04:56:18.990Z,20.64
2016-08-25T04:57:18.979Z,20.85
2016-08-25T04:58:18.981Z,21.09
2016-08-25T04:59:18.998Z,21.21
2016-08-25T05:00:18.988Z,21.52
2016-08-25T05:01:18.988Z,21.72
2016-08-25T05:02:18.987Z,21.88
2016-08-25T05:03:18.986Z,22.06
2016-08-25T05:04:18.995Z,22.24
2016-08-25T05:05:20.510Z,22.46
2016-08-25T05:07:20.591Z,22.79
2016-08-25T05:08:21.185Z,22.98
2016-08-25T05:09:19.002Z,23.15
2016-08-25T05:10:19.548Z,23.43
2016-08-25T05:11:19.002Z,23.75
2016-08-25T05:12:19.010Z,23.95
2016-08-25T05:13:19.012Z,24.13
2016-08-25T05:14:19.024Z,24.25
2016-08-25T05:15:19.706Z,24.46
2016-08-25T05:16:19.024Z,24.64
2016-08-25T05:17:19.741Z,24.85
2016-08-25T05:18:19.424Z,25
2016-08-25T05:19:19.047Z,25.24
2016-08-25T05:20:19.061Z,25.4
2016-08-25T05:21:19.048Z,25.55
2016-08-25T05:22:19.059Z,25.64
2016-08-25T05:23:19.068Z,25.67
2016-08-25T05:24:19.077Z,25.95
2016-08-25T05:25:19.078Z,26.05
2016-08-25T05:26:19.078Z,26.13
2016-08-25T05:27:19.087Z,26.39
2016-08-25T05:28:19.095Z,26.47
2016-08-25T05:29:19.097Z,26.58
2016-08-25T05:30:19.102Z,26.63
2016-08-25T05:31:19.115Z,26.82
2016-08-25T05:32:19.121Z,26.89
2016-08-25T05:33:19.123Z,26.95
2016-08-25T05:34:19.131Z,26.99
2016-08-25T05:35:19.845Z,27.27
2016-08-25T05:36:19.141Z,27.22
2016-08-25T05:37:19.165Z,27.46
2016-08-25T05:38:19.163Z,27.6
2016-08-25T05:39:19.174Z,27.69
2016-08-25T05:40:19.178Z,27.88
2016-08-25T05:41:19.185Z,27.99
2016-08-25T05:42:19.201Z,27.97
2016-08-25T05:43:20.345Z,28.07
2016-08-25T05:44:19.384Z,28.19
2016-08-25T05:45:19.517Z,28.34
2016-08-25T05:46:19.474Z,28.39
2016-08-25T05:47:19.236Z,28.58
2016-08-25T05:48:19.248Z,28.71
2016-08-25T05:49:19.253Z,28.76
2016-08-25T05:50:19.263Z,28.9
2016-08-25T05:51:19.265Z,28.98
2016-08-25T05:52:19.584Z,29.06
2016-08-25T05:53:19.285Z,29.26
2016-08-25T05:54:19.294Z,29.46
2016-08-25T05:55:19.755Z,29.65
2016-08-25T05:56:19.310Z,29.79
2016-08-25T05:57:19.371Z,29.83
2016-08-25T05:58:19.333Z,29.95
2016-08-25T05:59:19.339Z,30.13
2016-08-25T06:00:19.358Z,30.15
2016-08-25T06:01:19.363Z,30.24
2016-08-25T06:02:19.365Z,30.34
2016-08-25T06:03:20.185Z,30.51
2016-08-25T06:04:19.383Z,30.49
2016-08-25T06:05:19.398Z,30.55
2016-08-25T06:06:19.408Z,30.64
2016-08-25T06:07:19.424Z,30.76
2016-08-25T06:08:19.428Z,30.82
2016-08-25T06:09:19.446Z,30.76
2016-08-25T06:10:19.447Z,30.77
2016-08-25T06:11:19.452Z,30.89
2016-08-25T06:12:19.464Z,31.09
2016-08-25T06:13:19.479Z,31.17
2016-08-25T06:14:19.488Z,31.26
2016-08-25T06:15:19.502Z,31.5
2016-08-25T06:16:19.515Z,31.56
2016-08-25T06:17:19.521Z,31.51
2016-08-25T06:18:19.536Z,31.62
2016-08-25T06:19:19.560Z,31.7
2016-08-25T06:20:19.550Z,31.84
2016-08-25T06:21:19.562Z,31.86
2016-08-25T06:22:19.579Z,31.86
2016-08-25T06:23:19.592Z,32
2016-08-25T06:24:21.415Z,32.01
2016-08-25T06:25:20.905Z,32.01
2016-08-25T06:26:20.177Z,32.18
2016-08-25T06:27:20.118Z,32.28
2016-08-25T06:28:19.842Z,32.33
2016-08-25T06:29:19.675Z,32.47
2016-08-25T06:30:19.665Z,32.48
2016-08-25T06:31:19.681Z,32.43
2016-08-25T06:32:19.694Z,32.32
2016-08-25T06:33:21.218Z,32.48
2016-08-25T06:34:22.567Z,32.57
2016-08-25T06:35:21.170Z,32.51
2016-08-25T06:36:19.742Z,32.7
2016-08-25T06:37:19.764Z,32.72
2016-08-25T06:38:19.775Z,32.75
2016-08-25T06:39:19.793Z,32.63
2016-08-25T06:40:19.800Z,32.48
2016-08-25T06:41:19.820Z,32.5
2016-08-25T06:42:19.802Z,32.56
2016-08-25T06:43:19.838Z,32.67
2016-08-25T06:44:19.853Z,32.55
2016-08-25T06:45:19.862Z,32.55
2016-08-25T06:46:19.886Z,32.37
2016-08-25T06:47:19.891Z,32.55
2016-08-25T06:48:19.926Z,32.62
2016-08-25T06:49:19.926Z,32.52
2016-08-25T06:50:19.928Z,32.57
2016-08-25T06:51:19.948Z,32.48
2016-08-25T06:52:19.936Z,32.55
2016-08-25T06:53:19.963Z,32.56
2016-08-25T06:54:19.958Z,32.74
2016-08-25T06:55:19.971Z,32.7
2016-08-25T06:56:19.995Z,32.74
2016-08-25T06:57:19.991Z,32.79
2016-08-25T06:58:20.009Z,32.72
2016-08-25T06:59:20.014Z,32.47
2016-08-25T07:00:20.034Z,32.28
2016-08-25T07:01:21.053Z,32.44
2016-08-25T07:02:21.661Z,32.45
2016-08-25T07:03:20.066Z,32.38
2016-08-25T07:04:20.187Z,32.29
2016-08-25T07:05:20.111Z,32.13
2016-08-25T07:06:20.102Z,32.18
2016-08-25T07:07:20.130Z,32.18
2016-08-25T07:08:20.127Z,32.19
2016-08-25T07:09:20.136Z,32.28
2016-08-25T07:10:21.055Z,32.22
2016-08-25T07:12:20.928Z,32.33
2016-08-25T07:13:20.959Z,32.37
2016-08-25T07:14:20.214Z,32.41
2016-08-25T07:15:20.224Z,32.5
2016-08-25T07:16:20.229Z,32.57
2016-08-25T07:17:20.263Z,32.52
2016-08-25T07:18:20.260Z,32.56
2016-08-25T07:19:20.275Z,32.6
2016-08-25T07:20:20.295Z,32.66
2016-08-25T07:21:20.296Z,32.62
2016-08-25T07:22:20.310Z,32.57
2016-08-25T07:23:20.318Z,32.51
2016-08-25T07:24:20.333Z,32.35
2016-08-25T07:25:20.370Z,32.22
2016-08-25T07:26:20.370Z,32.23
2016-08-25T07:27:20.381Z,32.15
2016-08-25T07:28:20.382Z,32.21
2016-08-25T07:29:20.407Z,32.19
2016-08-25T07:30:20.402Z,32.18
2016-08-25T07:31:20.419Z,32.07
2016-08-25T07:32:20.432Z,32.03
2016-08-25T07:33:20.440Z,32.01
2016-08-25T07:34:20.450Z,31.93
2016-08-25T07:35:20.476Z,32.06
2016-08-25T07:36:20.480Z,32
2016-08-25T07:37:20.487Z,31.86
2016-08-25T07:38:20.528Z,31.81
2016-08-25T07:39:20.522Z,31.89
2016-08-25T07:40:20.536Z,31.85
2016-08-25T07:41:20.546Z,31.78
2016-08-25T07:43:23.709Z,31.53
2016-08-25T07:44:20.593Z,31.47
2016-08-25T07:45:21.231Z,31.44
2016-08-25T07:46:20.625Z,31.39
2016-08-25T07:47:21.710Z,31.35
2016-08-25T07:48:20.673Z,31.34
2016-08-25T07:49:20.646Z,31.19
2016-08-25T07:50:20.673Z,31.19
2016-08-25T07:51:21.944Z,31.34
2016-08-25T07:53:21.775Z,31.46
2016-08-25T07:54:20.786Z,31.36
2016-08-25T07:55:21.573Z,31.29
2016-08-25T07:56:21.774Z,31.06
2016-08-25T07:57:20.900Z,31.01
2016-08-25T07:58:20.756Z,30.92
2016-08-25T07:59:20.769Z,30.94
2016-08-25T08:00:20.785Z,30.88
2016-08-25T08:01:20.824Z,30.75
2016-08-25T08:02:20.812Z,30.64
2016-08-25T08:03:20.836Z,30.58
2016-08-25T08:04:20.837Z,30.46
2016-08-25T08:05:20.852Z,30.51
2016-08-25T08:06:20.862Z,30.54
2016-08-25T08:07:20.892Z,30.43
2016-08-25T08:08:20.890Z,30.43
2016-08-25T08:09:20.904Z,30.46
2016-08-25T08:10:20.911Z,30.42
2016-08-25T08:11:20.937Z,30.29
2016-08-25T08:12:20.941Z,30.27
2016-08-25T08:13:20.945Z,30.04
2016-08-25T08:14:20.968Z,29.94
2016-08-25T08:15:21.004Z,29.85
2016-08-25T08:16:20.990Z,29.86
2016-08-25T08:17:21.005Z,29.87
2016-08-25T08:18:21.031Z,29.78
2016-08-25T08:19:21.794Z,29.71
2016-08-25T08:20:21.739Z,29.57
2016-08-25T08:21:21.256Z,29.48
2016-08-25T08:22:21.073Z,29.36
2016-08-25T08:23:21.930Z,29.3
2016-08-25T08:24:21.096Z,29.27
2016-08-25T08:25:21.105Z,29.18
2016-08-25T08:26:21.126Z,29.14
2016-08-25T08:27:21.125Z,29.09
2016-08-25T08:28:21.949Z,28.98
2016-08-25T08:29:23.015Z,28.85
2016-08-25T08:30:21.627Z,28.66
2016-08-25T08:31:21.192Z,28.52
2016-08-25T08:32:22.342Z,28.39
2016-08-25T08:33:21.215Z,28.11
2016-08-25T08:34:21.213Z,27.96
2016-08-25T08:35:21.230Z,27.72
2016-08-25T08:36:21.927Z,27.55
2016-08-25T08:37:21.247Z,27.34
2016-08-25T08:38:21.277Z,27.24
2016-08-25T08:39:21.282Z,27.07
2016-08-25T08:40:21.281Z,27
2016-08-25T08:41:21.279Z,26.81
2016-08-25T08:42:21.288Z,26.67
2016-08-25T08:43:21.325Z,26.63
2016-08-25T08:44:21.299Z,26.52
2016-08-25T08:45:21.313Z,26.36
2016-08-25T08:46:21.317Z,26.3
2016-08-25T08:47:21.349Z,26.28
2016-08-25T08:48:21.333Z,26.09
2016-08-25T08:49:21.371Z,25.99
2016-08-25T08:50:21.354Z,25.97
2016-08-25T08:51:21.363Z,25.91
2016-08-25T08:52:21.374Z,25.85
2016-08-25T08:53:21.381Z,25.72
2016-08-25T08:54:21.380Z,25.64
2016-08-25T08:55:21.388Z,25.58
2016-08-25T08:56:21.401Z,25.62
2016-08-25T08:57:21.388Z,25.52
2016-08-25T08:58:21.403Z,25.55
2016-08-25T08:59:21.404Z,25.47
2016-08-25T09:02:21.720Z,25.39
2016-08-25T09:03:21.427Z,25.36
2016-08-25T09:04:21.686Z,25.32
2016-08-25T09:05:21.441Z,25.28
2016-08-25T09:06:21.436Z,25.32
2016-08-25T09:07:21.599Z,25.33
2016-08-25T09:08:21.445Z,25.3
2016-08-25T09:09:22.766Z,25.28
2016-08-25T09:10:23.738Z,25.32
2016-08-25T09:11:21.462Z,25.27
2016-08-25T09:12:22.525Z,25.2
2016-08-25T09:13:21.490Z,25.25
2016-08-25T09:14:21.472Z,25.24
2016-08-25T09:15:21.476Z,25.17
2016-08-25T09:16:21.487Z,25.18
2016-08-25T09:17:21.489Z,25.21
2016-08-25T09:18:21.489Z,25.3
2016-08-25T09:19:21.500Z,25.23
2016-08-25T09:20:21.524Z,25.3
2016-08-25T09:21:21.505Z,25.28
2016-08-25T09:22:21.513Z,25.23
2016-08-25T09:23:21.518Z,25.35
2016-08-25T09:24:21.516Z,25.27
2016-08-25T09:25:21.547Z,25.32
2016-08-25T09:26:21.529Z,25.33
2016-08-25T09:27:21.538Z,25.35
2016-08-25T09:28:21.550Z,25.33
2016-08-25T09:29:21.532Z,25.27
2016-08-25T09:30:21.535Z,25.32
2016-08-25T09:31:21.557Z,25.35
2016-08-25T09:32:21.540Z,25.32
2016-08-25T09:33:21.556Z,25.32
2016-08-25T09:34:21.559Z,25.36
2016-08-25T09:35:21.552Z,25.35
2016-08-25T09:36:21.591Z,25.28
2016-08-25T09:37:21.826Z,25.32
2016-08-25T09:38:22.274Z,25.39
2016-08-25T09:39:22.976Z,25.42
2016-08-25T09:40:23.582Z,25.52
2016-08-25T09:41:36.497Z,25.45
2016-08-25T09:42:21.579Z,25.54
2016-08-25T09:43:21.616Z,25.61
2016-08-25T09:44:21.611Z,25.55
2016-08-25T09:45:22.309Z,25.57
2016-08-25T09:46:22.051Z,25.57
2016-08-25T09:47:21.665Z,25.57
2016-08-25T09:48:21.659Z,25.54
2016-08-25T09:49:21.631Z,25.57
2016-08-25T09:50:21.660Z,25.61
2016-08-25T09:51:21.619Z,25.61
2016-08-25T09:52:21.895Z,25.72
2016-08-25T09:53:21.645Z,25.64
2016-08-25T09:54:21.631Z,25.75
2016-08-25T09:55:22.358Z,25.73
2016-08-25T09:56:21.637Z,25.73
2016-08-25T09:57:21.650Z,25.79
2016-08-25T09:58:21.652Z,25.82
2016-08-25T09:59:21.677Z,25.8
2016-08-25T10:00:21.679Z,25.87
2016-08-25T10:01:21.653Z,25.88
2016-08-25T10:02:21.664Z,25.99
2016-08-25T10:03:21.668Z,25.97
2016-08-25T10:04:21.664Z,26.1
2016-08-25T10:05:21.678Z,26.1
2016-08-25T10:06:21.680Z,26.06
2016-08-25T10:07:21.703Z,26.09
2016-08-25T10:08:21.681Z,26.17
2016-08-25T10:09:21.698Z,26.26
2016-08-25T10:10:21.696Z,26.28
2016-08-25T10:11:21.716Z,26.25
2016-08-25T10:12:21.700Z,26.39
2016-08-25T10:13:21.707Z,26.3
2016-08-25T10:14:21.711Z,26.36
2016-08-25T10:15:21.720Z,26.44
2016-08-25T10:16:21.746Z,26.35
2016-08-25T10:17:21.730Z,26.36
2016-08-25T10:19:22.007Z,26.4
2016-08-25T10:20:23.126Z,26.37
2016-08-25T10:21:22.588Z,26.47
2016-08-25T10:22:21.746Z,26.45
2016-08-25T10:23:21.759Z,26.47
2016-08-25T10:24:21.763Z,26.4
2016-08-25T10:25:21.782Z,26.45
2016-08-25T10:26:21.783Z,26.54
2016-08-25T10:27:23.162Z,26.55
2016-08-25T10:28:24.666Z,26.57
2016-08-25T10:29:22.409Z,26.6
2016-08-25T10:30:22.168Z,26.58
2016-08-25T10:31:23.585Z,26.65
2016-08-25T10:32:21.817Z,26.69
2016-08-25T10:33:21.799Z,26.66
2016-08-25T10:34:21.800Z,26.65
2016-08-25T10:35:21.806Z,26.66
2016-08-25T10:36:21.808Z,26.67
2016-08-25T10:37:21.816Z,26.72
2016-08-25T10:38:22.518Z,26.76
2016-08-25T10:39:21.844Z,26.81
2016-08-25T10:40:21.846Z,26.8
2016-08-25T10:41:21.831Z,26.77
2016-08-25T10:42:21.837Z,26.85
2016-08-25T10:43:21.836Z,26.91
2016-08-25T10:44:21.853Z,26.91
2016-08-25T10:45:21.847Z,26.92
2016-08-25T10:46:21.877Z,26.99
2016-08-25T10:47:21.857Z,26.95
2016-08-25T10:48:21.874Z,27.02
2016-08-25T10:49:21.863Z,26.97
2016-08-25T10:50:21.881Z,27.02
2016-08-25T10:51:21.882Z,27
2016-08-25T10:52:21.878Z,26.99
2016-08-25T10:53:21.885Z,27.09
2016-08-25T10:54:21.892Z,27.03
2016-08-25T10:55:24.314Z,27
2016-08-25T10:56:22.743Z,27.03
2016-08-25T10:57:22.351Z,27.03
2016-08-25T10:58:36.824Z,27.03
2016-08-25T10:59:22.919Z,27.04
2016-08-25T11:00:21.922Z,27.18
2016-08-25T11:01:21.929Z,27.09
2016-08-25T11:02:21.924Z,27.07
2016-08-25T11:03:21.930Z,27.06
2016-08-25T11:04:38.157Z,27.18
2016-08-25T11:05:23.091Z,27.14
2016-08-25T11:06:22.305Z,27.09
2016-08-25T11:07:21.949Z,27.17
2016-08-25T11:08:22.183Z,27.22
2016-08-25T11:09:22.534Z,27.31
2016-08-25T11:10:21.981Z,27.27
2016-08-25T11:11:21.971Z,27.28
2016-08-25T11:12:22.053Z,27.28
2016-08-25T11:13:21.989Z,27.32
2016-08-25T11:14:21.992Z,27.31
2016-08-25T11:15:21.991Z,27.29
2016-08-25T11:16:21.991Z,27.28
2016-08-25T11:17:21.994Z,27.32
2016-08-25T11:18:22.011Z,27.29
2016-08-25T11:19:22.004Z,27.27
2016-08-25T11:20:22.019Z,27.37
2016-08-25T11:21:22.018Z,27.32
2016-08-25T11:22:22.032Z,27.37
2016-08-25T11:23:22.026Z,27.39
2016-08-25T11:24:22.048Z,27.43
2016-08-25T11:25:22.058Z,27.43
2016-08-25T11:26:22.056Z,27.44
2016-08-25T11:27:22.046Z,27.44
2016-08-25T11:28:22.055Z,27.5
2016-08-25T11:29:22.065Z,27.54
2016-08-25T11:30:22.069Z,27.54
2016-08-25T11:31:22.083Z,27.57
2016-08-25T11:32:22.075Z,27.54
2016-08-25T11:33:22.083Z,27.65
2016-08-25T11:34:22.083Z,27.63
2016-08-25T11:35:22.099Z,27.66
2016-08-25T11:36:24.937Z,27.63
2016-08-25T11:37:22.826Z,27.67
2016-08-25T11:38:24.468Z,27.7
2016-08-25T11:39:24.235Z,27.69
2016-08-25T11:40:22.772Z,27.78
2016-08-25T11:41:22.133Z,27.69
2016-08-25T11:42:22.129Z,27.7
2016-08-25T11:43:22.127Z,27.79
2016-08-25T11:44:22.132Z,27.74
2016-08-25T11:45:23.754Z,27.75
2016-08-25T11:46:23.661Z,27.72
2016-08-25T11:47:23.806Z,27.7
2016-08-25T11:48:23.916Z,27.78
2016-08-25T11:49:22.723Z,27.81
2016-08-25T11:50:22.168Z,27.81
2016-08-25T11:51:22.176Z,27.81
2016-08-25T11:52:22.171Z,27.79
2016-08-25T11:53:22.177Z,27.82
2016-08-25T11:54:22.189Z,27.81
2016-08-25T11:55:22.185Z,27.84
2016-08-25T11:56:22.206Z,27.81
2016-08-25T11:57:22.223Z,27.78
2016-08-25T11:58:22.900Z,27.79
2016-08-25T11:59:22.220Z,27.9
2016-08-25T12:00:22.223Z,27.92
2016-08-25T12:01:22.216Z,27.85
2016-08-25T12:02:22.224Z,27.9
2016-08-25T12:03:22.255Z,27.87
2016-08-25T12:04:22.257Z,27.96
2016-08-25T12:05:22.254Z,27.84
2016-08-25T12:06:22.251Z,27.87
2016-08-25T12:07:22.275Z,27.85
2016-08-25T12:08:22.266Z,27.85
2016-08-25T12:09:22.265Z,27.9
2016-08-25T12:10:22.273Z,27.87
2016-08-25T12:11:22.295Z,27.97
2016-08-25T12:12:22.279Z,28.07
2016-08-25T12:13:37.217Z,27.99
2016-08-25T12:14:23.431Z,28.03
2016-08-25T12:15:22.400Z,27.97
2016-08-25T12:16:23.066Z,28.02
2016-08-25T12:17:22.304Z,28.02
2016-08-25T12:18:22.320Z,28.06
2016-08-25T12:19:22.780Z,28
2016-08-25T12:20:22.352Z,28.02
2016-08-25T12:21:22.325Z,28.09
2016-08-25T12:22:22.340Z,28.03
2016-08-25T12:23:23.190Z,28.04
2016-08-25T12:24:22.347Z,28.11
2016-08-25T12:26:22.748Z,28.09
2016-08-25T12:27:23.073Z,28.07
2016-08-25T12:28:22.365Z,28.04
2016-08-25T12:29:22.362Z,28.12
2016-08-25T12:30:22.377Z,28.12
2016-08-25T12:31:22.374Z,28.09
2016-08-25T12:32:22.379Z,28.06
2016-08-25T12:33:22.389Z,28.19
2016-08-25T12:34:23.113Z,28.22
2016-08-25T12:35:22.416Z,28.22
2016-08-25T12:36:22.412Z,28.24
2016-08-25T12:37:22.408Z,28.3
2016-08-25T12:38:23.141Z,28.3
2016-08-25T12:39:22.417Z,28.3
2016-08-25T12:40:22.452Z,28.22
2016-08-25T12:41:22.432Z,28.24
2016-08-25T12:42:22.445Z,28.25
2016-08-25T12:43:22.448Z,28.25
2016-08-25T12:44:22.473Z,28.21
2016-08-25T12:45:22.452Z,28.29
2016-08-25T12:46:22.468Z,28.24
2016-08-25T12:47:22.478Z,28.22
2016-08-25T12:48:22.479Z,28.25
2016-08-25T12:49:22.498Z,28.34
2016-08-25T12:50:22.476Z,28.39
2016-08-25T12:51:22.498Z,28.34
2016-08-25T12:52:22.488Z,28.4
2016-08-25T12:53:22.516Z,28.37
2016-08-25T12:55:23.928Z,28.34
2016-08-25T12:56:22.521Z,28.4
2016-08-25T12:57:22.775Z,28.4
2016-08-25T12:58:22.707Z,28.44
2016-08-25T12:59:22.525Z,28.44
2016-08-25T13:00:22.528Z,28.39
2016-08-25T13:01:22.546Z,28.49
2016-08-25T13:02:22.539Z,28.43
2016-08-25T13:03:24.262Z,28.43
2016-08-25T13:04:22.779Z,28.46
2016-08-25T13:05:25.164Z,28.46
2016-08-25T13:06:22.570Z,28.43
2016-08-25T13:07:22.596Z,28.49
2016-08-25T13:08:22.572Z,28.49